Time;durP1;ratioP1;P1;durP2;ratioP2;P2;SDS_P1;SDS_P2;PMS_P1;PMS_P2;Temp;Humidity;BMP_temperature;BMP_pressure;BME280_temperature;BME280_humidity;BME280_pressure;Samples;Min_cycle;Max_cycle;Signal;HPM_P1;HPM_P2
2023/09/09 00:00:29;;;;;;;4.00;3.53;;;;;;;;;;6242819;23;20020;-91
2023/09/09 00:02:55;;;;;;;4.10;3.70;;;;;;;;;;6216392;23;20012;-92
2023/09/09 00:05:21;;;;;;;4.05;3.65;;;;;;;;;;6215590;23;20016;-93
2023/09/09 00:07:47;;;;;;;4.82;4.28;;;;;;;;;;6243800;23;20043;-92
2023/09/09 00:10:13;;;;;;;5.15;4.50;;;;;;;;;;6242417;23;20023;-91
2023/09/09 00:12:39;;;;;;;6.80;4.93;;;;;;;;;;6243222;23;20311;-91
2023/09/09 00:15:06;;;;;;;6.47;4.40;;;;;;;;;;6241845;23;20042;-92
2023/09/09 00:17:32;;;;;;;4.93;4.22;;;;;;;;;;6241717;23;20016;-91
2023/09/09 00:19:58;;;;;;;4.80;3.80;;;;;;;;;;6215301;23;20396;-92
2023/09/09 00:22:24;;;;;;;5.35;3.95;;;;;;;;;;6242482;23;20016;-91
2023/09/09 00:24:50;;;;;;;4.15;3.60;;;;;;;;;;6241852;23;20016;-91
2023/09/09 00:27:16;;;;;;;5.60;3.42;;;;;;;;;;6215098;23;20115;-91
2023/09/09 00:29:42;;;;;;;4.32;3.90;;;;;;;;;;6215263;23;20023;-92
2023/09/09 00:32:08;;;;;;;4.50;3.85;;;;;;;;;;6214463;23;20009;-90
2023/09/09 00:34:35;;;;;;;5.63;4.10;;;;;;;;;;6242368;23;20061;-91
2023/09/09 00:37:03;;;;;;;4.65;3.88;;;;;;;;;;6241965;23;20016;-91
2023/09/09 00:39:29;;;;;;;5.13;3.78;;;;;;;;;;6242731;23;20016;-91
2023/09/09 00:41:55;;;;;;;4.32;3.92;;;;;;;;;;6241422;23;20019;-91
2023/09/09 00:44:21;;;;;;;5.03;4.05;;;;;;;;;;6214576;23;20027;-92
2023/09/09 00:46:47;;;;;;;5.22;3.78;;;;;;;;;;6242787;23;20381;-90
2023/09/09 00:49:14;;;;;;;4.20;3.53;;;;;;;;;;6214424;23;20414;-89
2023/09/09 00:51:40;;;;;;;5.55;4.05;;;;;;;;;;6215364;23;20012;-90
2023/09/09 00:54:06;;;;;;;4.72;3.88;;;;;;;;;;6214859;23;20012;-90
2023/09/09 00:56:35;;;;;;;4.90;4.28;;;;;;;;;;6214627;23;20012;-91
2023/09/09 00:59:01;;;;;;;7.50;4.63;;;;;;;;;;6241364;23;20102;-91
2023/09/09 01:01:27;;;;;;;5.43;4.53;;;;;;;;;;6242281;23;20024;-91
2023/09/09 01:03:53;;;;;;;5.13;4.60;;;;;;;;;;6242131;23;20087;-91
2023/09/09 01:06:20;;;;;;;5.93;4.75;;;;;;;;;;6242390;23;20111;-91
2023/09/09 01:08:47;;;;;;;6.43;5.45;;;;;;;;;;6241995;23;20338;-91
2023/09/09 01:11:14;;;;;;;5.28;4.75;;;;;;;;;;6248208;22;20012;-91
2023/09/09 01:13:40;;;;;;;7.85;4.93;;;;;;;;;;6265902;23;20007;-91
2023/09/09 01:16:06;;;;;;;7.75;4.75;;;;;;;;;;6245405;23;20011;-90
2023/09/09 01:18:34;;;;;;;8.85;4.97;;;;;;;;;;6245502;23;20019;-91
2023/09/09 01:21:11;;;;;;;8.65;4.72;;;;;;;;;;6255078;22;20066;-91
2023/09/09 01:23:38;;;;;;;6.30;4.22;;;;;;;;;;6245222;23;20453;-91
2023/09/09 01:26:04;;;;;;;6.75;5.13;;;;;;;;;;6217940;23;20024;-91
2023/09/09 01:28:30;;;;;;;6.07;4.75;;;;;;;;;;6243918;23;20072;-90
2023/09/09 01:30:56;;;;;;;5.70;4.60;;;;;;;;;;6243477;23;20015;-91
2023/09/09 01:33:22;;;;;;;5.93;4.25;;;;;;;;;;6243806;23;20062;-91
2023/09/09 01:35:48;;;;;;;5.53;4.07;;;;;;;;;;6244680;23;20016;-91
2023/09/09 01:38:14;;;;;;;4.88;4.20;;;;;;;;;;6216693;23;20051;-91
2023/09/09 01:40:40;;;;;;;5.20;4.25;;;;;;;;;;6244112;23;20016;-90
2023/09/09 01:43:06;;;;;;;4.32;3.92;;;;;;;;;;6242691;23;20456;-90
2023/09/09 01:45:32;;;;;;;4.72;4.22;;;;;;;;;;6243143;23;20016;-91
2023/09/09 01:47:58;;;;;;;5.47;4.60;;;;;;;;;;6217140;23;20012;-91
2023/09/09 01:50:24;;;;;;;5.10;4.60;;;;;;;;;;6215667;23;20426;-90
2023/09/09 01:52:50;;;;;;;5.50;5.00;;;;;;;;;;6242873;23;20377;-91
2023/09/09 01:55:16;;;;;;;7.28;5.63;;;;;;;;;;6216380;23;20012;-91
2023/09/09 01:57:42;;;;;;;6.40;5.45;;;;;;;;;;6216650;23;20039;-91
2023/09/09 02:00:10;;;;;;;5.78;5.20;;;;;;;;;;6215654;23;20349;-91
2023/09/09 02:02:36;;;;;;;6.50;5.10;;;;;;;;;;6243511;23;20016;-91
2023/09/09 02:05:02;;;;;;;6.70;5.60;;;;;;;;;;6215742;23;20012;-91
2023/09/09 02:07:28;;;;;;;6.35;5.75;;;;;;;;;;6243458;23;20016;-91
2023/09/09 02:09:54;;;;;;;7.15;5.45;;;;;;;;;;6243504;23;20055;-91
2023/09/09 02:12:21;;;;;;;5.78;4.93;;;;;;;;;;6215915;23;20012;-91
2023/09/09 02:14:47;;;;;;;8.63;6.57;;;;;;;;;;6243398;23;20012;-91
2023/09/09 02:17:13;;;;;;;7.93;5.05;;;;;;;;;;6215806;23;20024;-91
2023/09/09 02:19:39;;;;;;;8.18;4.63;;;;;;;;;;6217156;23;20017;-91
2023/09/09 02:22:05;;;;;;;6.47;4.82;;;;;;;;;;6244015;23;20033;-92
2023/09/09 02:24:31;;;;;;;6.68;5.32;;;;;;;;;;6215827;23;20016;-90
2023/09/09 02:26:57;;;;;;;6.53;5.90;;;;;;;;;;6243028;23;20047;-92
2023/09/09 02:29:23;;;;;;;8.20;5.97;;;;;;;;;;6243525;23;20004;-91
2023/09/09 02:31:49;;;;;;;9.07;6.05;;;;;;;;;;6216817;23;20008;-91
2023/09/09 02:34:15;;;;;;;8.38;5.45;;;;;;;;;;6242446;23;20020;-91
2023/09/09 02:36:43;;;;;;;7.28;5.35;;;;;;;;;;6244084;23;20020;-91
2023/09/09 02:39:10;;;;;;;6.25;5.15;;;;;;;;;;6214964;23;20024;-92
2023/09/09 02:41:36;;;;;;;7.00;5.88;;;;;;;;;;6216446;23;20020;-91
2023/09/09 02:44:02;;;;;;;6.35;5.38;;;;;;;;;;6243399;23;20038;-91
2023/09/09 02:46:28;;;;;;;7.38;4.60;;;;;;;;;;6216762;23;20020;-92
2023/09/09 02:48:54;;;;;;;7.13;5.40;;;;;;;;;;6215345;23;20020;-91
2023/09/09 02:51:20;;;;;;;6.93;5.50;;;;;;;;;;6216044;23;20346;-91
2023/09/09 02:53:46;;;;;;;9.85;5.90;;;;;;;;;;6244201;23;20020;-91
2023/09/09 02:56:12;;;;;;;9.05;6.13;;;;;;;;;;6242176;23;20016;-91
2023/09/09 02:58:38;;;;;;;8.75;6.15;;;;;;;;;;6243875;23;20107;-91
2023/09/09 03:01:07;;;;;;;7.85;6.35;;;;;;;;;;6215646;23;20437;-92
2023/09/09 03:03:34;;;;;;;9.30;7.35;;;;;;;;;;6215403;23;20035;-91
2023/09/09 03:06:00;;;;;;;10.10;7.63;;;;;;;;;;6242994;23;20016;-93
2023/09/09 03:08:26;;;;;;;10.40;6.90;;;;;;;;;;6215886;23;20326;-92
2023/09/09 03:10:53;;;;;;;9.85;6.63;;;;;;;;;;6244014;23;20062;-91
2023/09/09 03:13:19;;;;;;;9.48;6.80;;;;;;;;;;6245375;23;20048;-91
2023/09/09 03:15:45;;;;;;;7.78;6.65;;;;;;;;;;6246086;23;20090;-91
2023/09/09 03:18:11;;;;;;;10.00;6.93;;;;;;;;;;6218706;23;20016;-92
2023/09/09 03:20:37;;;;;;;6.88;6.05;;;;;;;;;;6247187;23;20376;-91
2023/09/09 03:23:03;;;;;;;6.93;5.68;;;;;;;;;;6218196;23;20016;-92
2023/09/09 03:25:29;;;;;;;7.45;5.78;;;;;;;;;;6218108;23;20071;-92
2023/09/09 03:27:55;;;;;;;8.93;6.45;;;;;;;;;;6244452;23;20027;-92
2023/09/09 03:30:23;;;;;;;8.32;6.05;;;;;;;;;;6243509;23;20036;-92
2023/09/09 03:32:49;;;;;;;7.18;5.72;;;;;;;;;;6193168;23;20063;-91
2023/09/09 03:35:15;;;;;;;9.52;6.57;;;;;;;;;;6217249;23;20153;-92
2023/09/09 03:37:41;;;;;;;8.38;6.93;;;;;;;;;;6193175;23;20016;-92
2023/09/09 03:40:07;;;;;;;7.93;6.85;;;;;;;;;;6217578;23;20019;-92
2023/09/09 03:42:33;;;;;;;8.68;6.70;;;;;;;;;;6218426;23;20019;-91
2023/09/09 03:44:59;;;;;;;9.40;8.05;;;;;;;;;;6217227;23;20008;-92
2023/09/09 03:47:25;;;;;;;9.30;6.05;;;;;;;;;;6243649;23;20090;-92
2023/09/09 03:49:55;;;;;;;8.82;6.15;;;;;;;;;;6218722;23;20012;-93
2023/09/09 03:52:21;;;;;;;9.90;6.40;;;;;;;;;;6218560;23;20008;-91
2023/09/09 03:54:47;;;;;;;8.30;7.32;;;;;;;;;;6219925;23;20012;-92
2023/09/09 03:57:13;;;;;;;9.00;7.35;;;;;;;;;;6193246;23;20016;-92
2023/09/09 03:59:39;;;;;;;8.35;6.55;;;;;;;;;;6192751;23;20060;-91
2023/09/09 04:02:05;;;;;;;7.72;6.18;;;;;;;;;;6243577;23;20012;-92
2023/09/09 04:04:31;;;;;;;8.40;6.65;;;;;;;;;;6218168;23;20448;-92
2023/09/09 04:06:57;;;;;;;10.07;7.00;;;;;;;;;;6191854;23;20043;-92
2023/09/09 04:09:26;;;;;;;8.13;6.30;;;;;;;;;;6245353;23;20035;-92
2023/09/09 04:11:53;;;;;;;9.27;6.25;;;;;;;;;;6217864;23;20392;-92
2023/09/09 04:14:19;;;;;;;7.57;5.78;;;;;;;;;;6244462;23;20015;-93
2023/09/09 04:16:45;;;;;;;8.27;6.68;;;;;;;;;;6217836;23;20071;-93
2023/09/09 04:19:11;;;;;;;10.05;6.18;;;;;;;;;;6244643;23;20048;-93
2023/09/09 04:21:37;;;;;;;9.07;6.53;;;;;;;;;;6218207;23;20358;-92
2023/09/09 04:24:03;;;;;;;9.43;7.18;;;;;;;;;;6217759;23;20099;-92
2023/09/09 04:26:29;;;;;;;8.60;6.65;;;;;;;;;;6244748;23;20016;-92
2023/09/09 04:28:55;;;;;;;8.32;6.63;;;;;;;;;;6243926;23;20457;-92
2023/09/09 04:31:21;;;;;;;9.40;7.40;;;;;;;;;;6216897;23;20012;-92
2023/09/09 04:33:47;;;;;;;10.43;7.82;;;;;;;;;;6245098;23;20012;-91
2023/09/09 04:36:14;;;;;;;11.80;7.78;;;;;;;;;;6216472;23;20077;-92
2023/09/09 04:38:40;;;;;;;10.65;8.02;;;;;;;;;;6218143;23;20020;-92
2023/09/09 04:41:06;;;;;;;11.05;8.93;;;;;;;;;;6243199;23;20461;-91
2023/09/09 04:43:32;;;;;;;9.65;7.75;;;;;;;;;;6192490;23;20018;-93
2023/09/09 04:45:58;;;;;;;11.32;8.02;;;;;;;;;;6217366;23;20024;-90
2023/09/09 04:48:24;;;;;;;12.82;8.40;;;;;;;;;;6244453;23;20088;-92
2023/09/09 04:50:50;;;;;;;11.38;8.60;;;;;;;;;;6244607;23;20012;-93
2023/09/09 04:53:16;;;;;;;11.18;8.88;;;;;;;;;;6217766;23;20385;-93
2023/09/09 04:55:42;;;;;;;13.40;9.50;;;;;;;;;;6217791;23;20016;-92
2023/09/09 04:58:12;;;;;;;11.95;8.93;;;;;;;;;;6217378;23;20023;-92
2023/09/09 05:00:38;;;;;;;12.98;9.20;;;;;;;;;;6217140;23;20016;-92
2023/09/09 05:03:04;;;;;;;12.90;9.27;;;;;;;;;;6244874;23;20549;-92
2023/09/09 05:05:30;;;;;;;12.27;9.48;;;;;;;;;;6244144;23;20031;-92
2023/09/09 05:07:56;;;;;;;13.90;9.88;;;;;;;;;;6244263;23;20016;-91
2023/09/09 05:10:24;;;;;;;12.88;9.13;;;;;;;;;;6218086;23;20022;-91
2023/09/09 05:12:50;;;;;;;15.88;10.05;;;;;;;;;;6216175;23;20009;-93
2023/09/09 05:15:16;;;;;;;13.80;9.68;;;;;;;;;;6243917;23;20008;-92
2023/09/09 05:17:42;;;;;;;14.20;9.50;;;;;;;;;;6217845;23;20012;-92
2023/09/09 05:20:09;;;;;;;13.50;9.63;;;;;;;;;;6244288;23;20054;-93
2023/09/09 05:22:35;;;;;;;12.38;9.82;;;;;;;;;;6218237;23;20020;-93
2023/09/09 05:25:01;;;;;;;15.43;10.07;;;;;;;;;;6216560;23;20043;-93
2023/09/09 05:27:27;;;;;;;12.55;8.65;;;;;;;;;;6243253;23;20018;-91
2023/09/09 05:29:53;;;;;;;12.10;9.07;;;;;;;;;;6242583;23;20027;-87
2023/09/09 05:32:19;;;;;;;13.20;9.30;;;;;;;;;;6241795;23;20177;-87
2023/09/09 05:34:45;;;;;;;13.13;8.60;;;;;;;;;;6213629;23;20095;-83
2023/09/09 05:37:11;;;;;;;10.48;8.80;;;;;;;;;;6241438;23;20020;-84
2023/09/09 05:39:37;;;;;;;9.77;8.00;;;;;;;;;;6215386;23;20123;-84
2023/09/09 05:42:05;;;;;;;10.45;7.63;;;;;;;;;;6241412;23;20024;-84
2023/09/09 05:44:31;;;;;;;13.43;9.07;;;;;;;;;;6241667;23;20008;-84
2023/09/09 05:46:57;;;;;;;14.02;9.95;;;;;;;;;;6240598;23;20083;-84
2023/09/09 05:49:23;;;;;;;12.60;9.80;;;;;;;;;;6241326;23;20016;-84
2023/09/09 05:51:49;;;;;;;12.52;9.85;;;;;;;;;;6241999;23;20034;-86
2023/09/09 05:54:15;;;;;;;14.02;10.35;;;;;;;;;;6241607;23;20047;-83
2023/09/09 05:56:41;;;;;;;13.77;9.40;;;;;;;;;;6241526;23;20337;-84
2023/09/09 05:59:08;;;;;;;12.82;9.85;;;;;;;;;;6241909;23;20207;-84
2023/09/09 06:01:34;;;;;;;13.05;10.38;;;;;;;;;;6242298;23;20315;-85
2023/09/09 06:04:00;;;;;;;15.32;10.65;;;;;;;;;;6239674;23;20051;-85
2023/09/09 06:06:26;;;;;;;14.80;10.43;;;;;;;;;;6241330;23;20016;-84
2023/09/09 06:08:52;;;;;;;15.32;10.93;;;;;;;;;;6241380;23;20091;-85
2023/09/09 06:11:18;;;;;;;15.93;11.77;;;;;;;;;;6240975;23;20328;-83
2023/09/09 06:13:44;;;;;;;19.45;12.77;;;;;;;;;;6241601;23;20017;-84
2023/09/09 06:16:10;;;;;;;16.52;12.75;;;;;;;;;;6240328;23;20012;-83
2023/09/09 06:18:36;;;;;;;19.80;14.43;;;;;;;;;;6241208;23;20402;-84
2023/09/09 06:21:02;;;;;;;19.95;14.02;;;;;;;;;;6240714;23;20095;-83
2023/09/09 06:23:28;;;;;;;22.58;15.18;;;;;;;;;;6242132;23;20016;-83
2023/09/09 06:25:54;;;;;;;20.48;14.80;;;;;;;;;;6240848;23;20093;-84
2023/09/09 06:28:20;;;;;;;21.73;15.43;;;;;;;;;;6241114;23;20012;-84
2023/09/09 06:30:46;;;;;;;22.85;14.73;;;;;;;;;;6244133;23;20016;-83
2023/09/09 06:33:12;;;;;;;23.27;15.68;;;;;;;;;;6253679;23;20062;-83
2023/09/09 06:35:47;;;;;;;22.63;15.88;;;;;;;;;;6249673;23;20019;-84
2023/09/09 06:38:13;;;;;;;23.45;16.00;;;;;;;;;;6245644;23;20019;-83
2023/09/09 06:40:39;;;;;;;23.33;16.13;;;;;;;;;;6247280;23;20039;-82
2023/09/09 06:43:05;;;;;;;24.23;16.20;;;;;;;;;;6239576;23;20012;-82
2023/09/09 06:45:31;;;;;;;22.85;17.13;;;;;;;;;;6240532;23;20376;-83
2023/09/09 06:47:57;;;;;;;22.30;16.02;;;;;;;;;;6214264;23;20016;-82
2023/09/09 06:50:23;;;;;;;23.75;16.27;;;;;;;;;;6240998;23;20066;-82
2023/09/09 06:52:49;;;;;;;23.73;16.58;;;;;;;;;;6212841;23;20012;-82
2023/09/09 06:55:15;;;;;;;20.15;15.27;;;;;;;;;;6240076;23;20341;-82
2023/09/09 06:57:41;;;;;;;24.00;16.35;;;;;;;;;;6241019;23;20122;-83
2023/09/09 07:00:08;;;;;;;22.08;16.85;;;;;;;;;;6212784;23;20016;-83
2023/09/09 07:02:34;;;;;;;26.67;17.75;;;;;;;;;;6213984;23;20016;-83
2023/09/09 07:05:00;;;;;;;23.25;16.42;;;;;;;;;;6214638;23;20382;-82
2023/09/09 07:07:26;;;;;;;22.23;15.77;;;;;;;;;;6242124;23;20078;-82
2023/09/09 07:09:52;;;;;;;27.33;16.33;;;;;;;;;;6242239;23;20091;-83
2023/09/09 07:12:18;;;;;;;19.17;14.85;;;;;;;;;;6241664;23;20043;-83
2023/09/09 07:14:44;;;;;;;23.83;16.58;;;;;;;;;;6215879;23;20023;-83
2023/09/09 07:17:10;;;;;;;24.20;16.58;;;;;;;;;;6240271;23;20020;-83
2023/09/09 07:19:36;;;;;;;21.00;16.13;;;;;;;;;;6242243;23;20016;-83
2023/09/09 07:22:02;;;;;;;23.48;17.10;;;;;;;;;;6214842;23;20039;-84
2023/09/09 07:24:28;;;;;;;23.45;16.55;;;;;;;;;;6240595;23;20012;-83
2023/09/09 07:26:54;;;;;;;24.42;16.58;;;;;;;;;;6239306;23;20344;-85
2023/09/09 07:29:21;;;;;;;23.17;16.75;;;;;;;;;;6213408;23;20087;-81
2023/09/09 07:31:47;;;;;;;21.33;17.15;;;;;;;;;;6213958;23;20081;-82
2023/09/09 07:34:13;;;;;;;24.77;18.67;;;;;;;;;;6237943;23;20434;-81
2023/09/09 07:36:39;;;;;;;23.10;17.38;;;;;;;;;;6213583;23;20016;-81
2023/09/09 07:39:06;;;;;;;23.95;16.70;;;;;;;;;;6213148;23;20031;-81
2023/09/09 07:41:32;;;;;;;22.42;16.65;;;;;;;;;;6239479;23;20311;-82
2023/09/09 07:43:58;;;;;;;23.65;16.52;;;;;;;;;;6213356;23;20051;-81
2023/09/09 07:46:24;;;;;;;23.25;16.67;;;;;;;;;;6214404;23;20017;-81
2023/09/09 07:48:50;;;;;;;21.60;17.15;;;;;;;;;;6240747;23;20484;-81
2023/09/09 07:51:16;;;;;;;24.52;17.83;;;;;;;;;;6240605;23;20089;-82
2023/09/09 07:53:42;;;;;;;21.58;16.25;;;;;;;;;;6236889;23;20012;-82
2023/09/09 07:56:08;;;;;;;23.08;17.10;;;;;;;;;;6240086;23;20054;-83
2023/09/09 07:58:34;;;;;;;23.45;17.90;;;;;;;;;;6240757;23;20030;-81
2023/09/09 08:01:04;;;;;;;23.20;19.25;;;;;;;;;;6242542;23;20095;-82
2023/09/09 08:03:30;;;;;;;25.60;17.77;;;;;;;;;;6215415;23;20091;-82
2023/09/09 08:05:56;;;;;;;23.58;17.60;;;;;;;;;;6241801;23;20027;-82
2023/09/09 08:08:22;;;;;;;25.65;17.65;;;;;;;;;;6240816;23;20047;-81
2023/09/09 08:10:49;;;;;;;27.58;19.75;;;;;;;;;;6241573;23;20012;-80
2023/09/09 08:13:15;;;;;;;24.95;17.65;;;;;;;;;;6215277;23;20020;-83
2023/09/09 08:15:41;;;;;;;25.63;18.50;;;;;;;;;;6243763;23;20018;-82
2023/09/09 08:18:07;;;;;;;25.00;19.25;;;;;;;;;;6215556;23;20023;-83
2023/09/09 08:20:33;;;;;;;27.70;18.63;;;;;;;;;;6215591;23;20016;-83
2023/09/09 08:22:59;;;;;;;24.95;19.30;;;;;;;;;;6241660;23;20138;-80
2023/09/09 08:25:26;;;;;;;27.35;20.13;;;;;;;;;;6214652;23;20012;-80
2023/09/09 08:27:52;;;;;;;22.40;17.52;;;;;;;;;;6242116;23;20016;-81
2023/09/09 08:30:18;;;;;;;29.02;19.73;;;;;;;;;;6213491;23;20020;-81
2023/09/09 08:32:44;;;;;;;24.35;19.48;;;;;;;;;;6240362;23;20012;-81
2023/09/09 08:35:10;;;;;;;24.75;19.30;;;;;;;;;;6241308;23;20012;-81
2023/09/09 08:37:36;;;;;;;24.52;18.98;;;;;;;;;;6241512;23;20066;-81
2023/09/09 08:40:03;;;;;;;26.10;18.35;;;;;;;;;;6213115;23;20027;-81
2023/09/09 08:42:44;;;;;;;26.92;18.75;;;;;;;;;;6241328;23;20058;-81
2023/09/09 08:45:19;;;;;;;26.50;18.17;;;;;;;;;;6242212;23;20008;-81
2023/09/09 08:47:45;;;;;;;30.33;21.55;;;;;;;;;;6215750;23;20023;-80
2023/09/09 08:50:12;;;;;;;26.80;20.73;;;;;;;;;;6213615;23;20380;-81
2023/09/09 08:52:39;;;;;;;27.17;21.73;;;;;;;;;;6215166;23;20479;-82
2023/09/09 08:55:06;;;;;;;31.50;21.92;;;;;;;;;;6214516;23;20338;-81
2023/09/09 08:57:32;;;;;;;27.15;20.73;;;;;;;;;;6241397;23;20066;-83
2023/09/09 08:59:59;;;;;;;27.25;19.67;;;;;;;;;;6241378;23;20016;-82
2023/09/09 09:02:25;;;;;;;27.52;20.85;;;;;;;;;;6241225;23;20449;-83
2023/09/09 09:04:52;;;;;;;29.85;20.45;;;;;;;;;;6241866;23;20020;-82
2023/09/09 09:07:19;;;;;;;32.55;21.75;;;;;;;;;;6242030;23;20342;-82
2023/09/09 09:09:45;;;;;;;31.27;20.60;;;;;;;;;;6242578;23;20012;-82
2023/09/09 09:12:12;;;;;;;27.33;21.85;;;;;;;;;;6240133;23;20009;-82
2023/09/09 09:14:45;;;;;;;27.80;21.58;;;;;;;;;;6242604;23;20043;-82
2023/09/09 09:17:11;;;;;;;30.33;22.40;;;;;;;;;;6241666;23;20023;-82
2023/09/09 09:19:37;;;;;;;26.08;20.13;;;;;;;;;;6242542;23;20031;-82
2023/09/09 09:22:04;;;;;;;28.73;21.10;;;;;;;;;;6189518;23;20020;-82
2023/09/09 09:24:40;;;;;;;31.60;22.02;;;;;;;;;;6242369;23;20365;-82
2023/09/09 09:27:10;;;;;;;30.95;21.73;;;;;;;;;;6240626;23;20102;-82
2023/09/09 09:29:44;;;;;;;34.83;25.67;;;;;;;;;;6240943;23;20012;-83
2023/09/09 09:32:11;;;;;;;30.77;23.33;;;;;;;;;;6239295;23;20008;-83
2023/09/09 09:34:38;;;;;;;31.15;21.85;;;;;;;;;;6241157;23;20030;-82
2023/09/09 09:37:11;;;;;;;29.25;22.77;;;;;;;;;;6241808;23;20035;-82
2023/09/09 09:39:37;;;;;;;29.17;22.00;;;;;;;;;;6241621;23;20337;-82
2023/09/09 09:42:03;;;;;;;25.10;19.65;;;;;;;;;;6240537;23;20069;-82
2023/09/09 09:44:29;;;;;;;28.85;21.23;;;;;;;;;;6214494;23;20020;-82
2023/09/09 09:47:00;;;;;;;25.95;19.80;;;;;;;;;;6214537;23;20091;-82
2023/09/09 09:49:34;;;;;;;25.33;18.75;;;;;;;;;;6215105;23;20425;-82
2023/09/09 09:52:00;;;;;;;26.05;19.65;;;;;;;;;;6241160;23;20012;-81
2023/09/09 09:54:26;;;;;;;23.80;18.88;;;;;;;;;;6241394;23;20333;-82
2023/09/09 09:56:53;;;;;;;24.20;19.63;;;;;;;;;;6241187;23;20016;-82
2023/09/09 09:59:20;;;;;;;24.77;18.98;;;;;;;;;;6241485;23;20023;-83
2023/09/09 10:01:48;;;;;;;23.85;18.70;;;;;;;;;;6242226;23;20042;-82
2023/09/09 10:04:17;;;;;;;27.70;21.85;;;;;;;;;;6241529;23;20020;-82
2023/09/09 10:06:45;;;;;;;27.80;21.05;;;;;;;;;;6242161;23;20023;-82
2023/09/09 10:09:12;;;;;;;24.02;19.02;;;;;;;;;;6240656;23;20051;-82
2023/09/09 10:11:43;;;;;;;24.45;18.67;;;;;;;;;;6214910;23;20020;-82
2023/09/09 10:14:09;;;;;;;22.30;17.17;;;;;;;;;;6241128;23;20016;-82
2023/09/09 10:16:36;;;;;;;23.13;18.27;;;;;;;;;;6242222;23;20062;-82
2023/09/09 10:19:03;;;;;;;27.10;17.90;;;;;;;;;;6241388;23;20099;-83
2023/09/09 10:21:31;;;;;;;22.00;19.25;;;;;;;;;;6241172;23;20027;-81
2023/09/09 10:23:57;;;;;;;23.50;16.98;;;;;;;;;;6240398;23;20019;-81
2023/09/09 10:26:23;;;;;;;24.77;18.15;;;;;;;;;;6213658;23;20016;-81
2023/09/09 10:28:50;;;;;;;24.58;20.48;;;;;;;;;;6214051;23;20360;-81
2023/09/09 10:31:16;;;;;;;25.55;18.90;;;;;;;;;;6240534;23;20019;-81
2023/09/09 10:33:45;;;;;;;21.48;17.15;;;;;;;;;;6241711;23;20071;-82
2023/09/09 10:36:12;;;;;;;20.15;16.50;;;;;;;;;;6240707;23;20020;-84
2023/09/09 10:38:38;;;;;;;18.85;14.98;;;;;;;;;;6214388;23;20083;-82
2023/09/09 10:41:05;;;;;;;17.67;14.40;;;;;;;;;;6214056;23;20051;-81
2023/09/09 10:43:31;;;;;;;19.90;16.38;;;;;;;;;;6241565;23;20020;-84
2023/09/09 10:45:57;;;;;;;16.48;13.88;;;;;;;;;;6240376;23;20016;-84
2023/09/09 10:48:24;;;;;;;15.88;13.02;;;;;;;;;;6241473;23;20015;-83
2023/09/09 10:50:51;;;;;;;16.60;12.93;;;;;;;;;;6213565;23;20341;-83
2023/09/09 10:53:21;;;;;;;14.65;11.75;;;;;;;;;;6213127;23;20008;-81
2023/09/09 10:55:47;;;;;;;;;;;;;;;;;;6242097;23;20068;-84
2023/09/09 10:58:18;;;;;;;14.07;11.45;;;;;;;;;;6240684;23;20038;-81
2023/09/09 11:00:45;;;;;;;15.07;11.52;;;;;;;;;;6241175;23;20095;-83
2023/09/09 11:03:15;;;;;;;13.45;10.65;;;;;;;;;;6213311;23;20020;-84
2023/09/09 11:06:02;;;;;;;12.90;11.05;;;;;;;;;;6214229;23;20019;-84
2023/09/09 11:08:29;;;;;;;10.80;9.70;;;;;;;;;;6240335;23;20012;-84
2023/09/09 11:11:06;;;;;;;12.57;10.55;;;;;;;;;;6241272;23;20338;-84
2023/09/09 11:13:41;;;;;;;14.07;11.10;;;;;;;;;;6241150;23;20035;-82
2023/09/09 11:16:07;;;;;;;14.70;10.93;;;;;;;;;;6240149;23;20067;-83
2023/09/09 11:18:37;;;;;;;13.20;10.35;;;;;;;;;;6240665;23;20023;-83
2023/09/09 11:21:03;;;;;;;12.63;10.05;;;;;;;;;;6212912;23;20369;-83
2023/09/09 11:23:31;;;;;;;12.15;10.18;;;;;;;;;;6212461;23;20450;-84
2023/09/09 11:25:58;;;;;;;14.10;12.48;;;;;;;;;;6213800;23;20016;-83
2023/09/09 11:28:24;;;;;;;11.80;10.20;;;;;;;;;;6214593;23;20035;-85
2023/09/09 11:30:50;;;;;;;12.55;9.43;;;;;;;;;;6213356;23;20385;-83
2023/09/09 11:33:25;;;;;;;10.98;8.50;;;;;;;;;;6213984;23;20031;-84
2023/09/09 11:35:51;;;;;;;8.40;7.07;;;;;;;;;;6242656;23;20023;-83
2023/09/09 11:38:17;;;;;;;10.60;8.63;;;;;;;;;;6243015;23;20369;-82
2023/09/09 11:40:45;;;;;;;11.85;10.68;;;;;;;;;;6243920;23;20386;-89
2023/09/09 11:43:14;;;;;;;9.98;8.77;;;;;;;;;;6215127;23;20047;-84
2023/09/09 11:45:40;;;;;;;9.15;8.30;;;;;;;;;;6243212;23;20012;-84
2023/09/09 11:48:13;;;;;;;11.13;8.23;;;;;;;;;;6243166;23;20012;-84
2023/09/09 11:50:40;;;;;;;12.70;8.82;;;;;;;;;;6215839;23;20341;-84
2023/09/09 11:53:07;;;;;;;9.93;8.70;;;;;;;;;;6242777;23;20070;-84
2023/09/09 11:55:33;;;;;;;11.43;8.77;;;;;;;;;;6243413;22;20323;-85
2023/09/09 11:57:59;;;;;;;10.82;8.68;;;;;;;;;;6216989;23;20426;-83
2023/09/09 12:00:25;;;;;;;9.55;8.55;;;;;;;;;;6245734;23;20307;-83
2023/09/09 12:02:51;;;;;;;9.75;7.50;;;;;;;;;;6246818;23;20008;-83
2023/09/09 12:05:17;;;;;;;9.65;8.43;;;;;;;;;;6244601;23;20075;-84
2023/09/09 12:07:44;;;;;;;8.95;7.93;;;;;;;;;;6243941;23;20016;-85
2023/09/09 12:10:14;;;;;;;9.50;8.50;;;;;;;;;;6215348;23;20352;-83
2023/09/09 12:12:41;;;;;;;15.85;8.45;;;;;;;;;;6242805;23;20008;-84
2023/09/09 12:15:08;;;;;;;11.90;8.20;;;;;;;;;;6241102;23;20012;-84
2023/09/09 12:17:34;;;;;;;11.32;8.30;;;;;;;;;;6191091;23;20338;-84
2023/09/09 12:20:08;;;;;;;12.38;9.65;;;;;;;;;;6241785;23;20016;-85
2023/09/09 12:22:35;;;;;;;10.70;8.55;;;;;;;;;;6216203;23;20381;-84
2023/09/09 12:25:01;;;;;;;10.13;9.13;;;;;;;;;;6215189;23;20019;-85
2023/09/09 12:27:41;;;;;;;13.23;9.73;;;;;;;;;;6215911;23;20459;-86
2023/09/09 12:30:08;;;;;;;10.73;8.43;;;;;;;;;;6213169;23;20016;-84
2023/09/09 12:32:34;;;;;;;8.40;7.57;;;;;;;;;;6242787;23;20448;-84
2023/09/09 12:35:00;;;;;;;8.27;7.43;;;;;;;;;;6240548;23;20012;-83
2023/09/09 12:37:26;;;;;;;7.80;7.03;;;;;;;;;;6241989;23;20095;-84
2023/09/09 12:40:01;;;;;;;9.10;7.75;;;;;;;;;;6242678;23;20051;-83
2023/09/09 12:42:27;;;;;;;8.93;6.63;;;;;;;;;;6241493;23;20029;-84
2023/09/09 12:44:53;;;;;;;7.47;6.78;;;;;;;;;;6214504;23;20450;-84
2023/09/09 12:47:26;;;;;;;7.25;6.30;;;;;;;;;;6242616;23;20013;-81
2023/09/09 12:49:52;;;;;;;6.32;5.72;;;;;;;;;;6214537;23;20364;-83
2023/09/09 12:52:18;;;;;;;7.47;6.13;;;;;;;;;;6241551;23;20012;-82
2023/09/09 12:54:44;;;;;;;8.80;5.55;;;;;;;;;;6213925;23;20016;-83
2023/09/09 12:57:10;;;;;;;6.63;5.90;;;;;;;;;;6241496;23;20035;-82
2023/09/09 12:59:36;;;;;;;6.97;6.28;;;;;;;;;;6190471;23;20384;-84
2023/09/09 13:02:02;;;;;;;7.05;6.35;;;;;;;;;;6241646;23;20091;-83
2023/09/09 13:04:28;;;;;;;7.82;5.82;;;;;;;;;;6243838;23;20016;-84
2023/09/09 13:06:54;;;;;;;7.22;5.75;;;;;;;;;;6244582;23;20382;-82
2023/09/09 13:09:20;;;;;;;6.43;5.82;;;;;;;;;;6217312;23;20065;-83
2023/09/09 13:11:46;;;;;;;5.43;4.93;;;;;;;;;;6217191;23;20103;-83
2023/09/09 13:14:12;;;;;;;5.95;5.35;;;;;;;;;;6215387;23;20341;-82
2023/09/09 13:16:40;;;;;;;5.07;4.57;;;;;;;;;;6242474;23;20440;-83
2023/09/09 13:19:06;;;;;;;5.97;4.82;;;;;;;;;;6241687;23;20020;-82
2023/09/09 13:21:32;;;;;;;5.22;4.72;;;;;;;;;;6242487;23;20020;-83
2023/09/09 13:23:58;;;;;;;6.45;5.82;;;;;;;;;;6241055;23;20334;-82
2023/09/09 13:26:24;;;;;;;6.25;5.65;;;;;;;;;;6241445;23;20405;-82
2023/09/09 13:28:50;;;;;;;6.57;5.55;;;;;;;;;;6214553;23;20015;-83
2023/09/09 13:31:16;;;;;;;8.30;5.78;;;;;;;;;;6241887;23;20020;-82
2023/09/09 13:33:42;;;;;;;5.32;4.82;;;;;;;;;;6214386;23;20016;-82
2023/09/09 13:36:08;;;;;;;6.45;5.57;;;;;;;;;;6241552;23;20695;-83
2023/09/09 13:38:34;;;;;;;5.88;5.28;;;;;;;;;;6215088;23;20087;-83
2023/09/09 13:41:00;;;;;;;7.50;6.70;;;;;;;;;;6214345;23;20094;-82
2023/09/09 13:43:26;;;;;;;6.60;5.93;;;;;;;;;;6240767;23;20390;-82
2023/09/09 13:45:53;;;;;;;5.82;5.15;;;;;;;;;;6241953;23;20095;-82
2023/09/09 13:48:19;;;;;;;5.95;5.32;;;;;;;;;;6241236;23;20393;-82
2023/09/09 13:50:45;;;;;;;5.53;4.85;;;;;;;;;;6241817;23;20012;-82
2023/09/09 13:53:11;;;;;;;5.95;5.45;;;;;;;;;;6188904;23;20110;-83
2023/09/09 13:55:37;;;;;;;6.30;5.63;;;;;;;;;;6214549;23;20047;-83
2023/09/09 13:58:03;;;;;;;6.80;5.28;;;;;;;;;;6240421;23;20115;-83
2023/09/09 14:00:29;;;;;;;6.93;5.40;;;;;;;;;;6213300;23;20095;-83
2023/09/09 14:02:55;;;;;;;5.57;4.93;;;;;;;;;;6213006;23;20109;-83
2023/09/09 14:05:21;;;;;;;6.97;5.72;;;;;;;;;;6213573;23;20070;-83
2023/09/09 14:07:47;;;;;;;7.30;5.97;;;;;;;;;;6214786;23;20020;-82
2023/09/09 14:10:13;;;;;;;6.05;5.50;;;;;;;;;;6240772;23;20319;-82
2023/09/09 14:12:41;;;;;;;6.43;5.78;;;;;;;;;;6241545;23;20087;-82
2023/09/09 14:15:08;;;;;;;7.63;6.63;;;;;;;;;;6240593;23;20012;-83
2023/09/09 14:17:34;;;;;;;7.93;5.97;;;;;;;;;;6240473;23;20016;-83
2023/09/09 14:20:00;;;;;;;6.32;5.55;;;;;;;;;;6239551;23;20019;-83
2023/09/09 14:22:26;;;;;;;7.70;5.65;;;;;;;;;;6239800;23;20055;-82
2023/09/09 14:24:52;;;;;;;7.18;6.57;;;;;;;;;;6241317;23;20087;-83
2023/09/09 14:27:18;;;;;;;8.15;6.30;;;;;;;;;;6240255;23;20099;-82